Terminal Aerodrome Forecast
Issued by NWS Newport/Morehead City, NC

Home | Current Version | Previous Version | Text Only | Print | Product List | Glossary On
Versions: 1 2 3 4 5 6 7 8 9 10 11 12 13 14 15 16 17 18 19 20 21 22 23
867
FTUS42 KMHX 310758 AAB
TAFEWN
TAF AMD
KEWN 310758Z 3108/0106 00000KT P6SM BKN005
      TEMPO 3108/3109 4SM BR
     FM310900 00000KT 4SM BR BKN006
     FM311400 VRB04KT P6SM BKN150
     FM311800 VRB05KT P6SM VCTS SCT050CB BKN150=

USA.gov is the U.S. government's official web portal to all federal, state and local government web resources and services.